createdAt,value
2018-12-26T00:00:33.598Z,99.99
2018-12-26T00:01:33.576Z,99.85
2018-12-26T00:02:33.482Z,99.99
2018-12-26T00:03:33.417Z,99.66
2018-12-26T00:04:33.357Z,99.99
2018-12-26T00:05:33.345Z,99.99
2018-12-26T00:06:33.240Z,99.99
2018-12-26T00:07:33.181Z,99.99
2018-12-26T00:08:33.152Z,99.99
2018-12-26T00:09:33.064Z,99.57
2018-12-26T00:10:33.037Z,99.38
2018-12-26T00:11:32.943Z,99.28
2018-12-26T00:12:32.884Z,99.38
2018-12-26T00:13:32.826Z,99.09
2018-12-26T00:14:32.766Z,99.28
2018-12-26T00:15:32.764Z,98.62
2018-12-26T00:16:32.652Z,98.14
2018-12-26T00:17:32.591Z,98.33
2018-12-26T00:18:32.570Z,98.33
2018-12-26T00:19:32.528Z,98.05
2018-12-26T00:20:32.445Z,98.52
2018-12-26T00:21:32.355Z,97.58
2018-12-26T00:22:32.293Z,97.39
2018-12-26T00:23:32.237Z,97.58
2018-12-26T00:24:32.174Z,98.05
2018-12-26T00:25:32.159Z,97.58
2018-12-26T00:26:32.068Z,97.39
2018-12-26T00:27:32.008Z,96.73
2018-12-26T00:28:31.944Z,96.92
2018-12-26T00:29:31.880Z,97.39
2018-12-26T00:30:31.862Z,96.83
2018-12-26T00:31:31.764Z,96.35
2018-12-26T00:32:31.702Z,97.01
2018-12-26T00:33:31.643Z,97.49
2018-12-26T00:34:31.584Z,97.39
2018-12-26T00:35:31.563Z,97.30
2018-12-26T00:36:31.475Z,96.07
2018-12-26T00:37:31.410Z,96.16
2018-12-26T00:38:31.347Z,96.16
2018-12-26T00:39:31.290Z,96.07
2018-12-26T00:40:31.261Z,96.54
2018-12-26T00:41:31.168Z,96.45
2018-12-26T00:42:31.105Z,96.45
2018-12-26T00:43:31.046Z,96.54
2018-12-26T00:44:30.986Z,96.26
2018-12-26T00:45:30.969Z,96.26
2018-12-26T00:46:30.922Z,95.69
2018-12-26T00:47:30.810Z,95.50
2018-12-26T00:48:30.766Z,95.88
2018-12-26T00:49:30.693Z,95.12
2018-12-26T00:50:30.637Z,95.03
2018-12-26T00:51:30.605Z,95.21
2018-12-26T00:52:30.512Z,94.56
2018-12-26T00:53:30.453Z,95.12
2018-12-26T00:54:30.397Z,95.03
2018-12-26T00:55:30.371Z,95.69
2018-12-26T00:56:30.275Z,95.40
2018-12-26T00:57:30.219Z,95.50
2018-12-26T00:58:30.155Z,96.26
2018-12-26T00:59:30.097Z,96.73
2018-12-26T01:00:30.080Z,96.73
2018-12-26T01:01:29.979Z,96.92
2018-12-26T01:02:29.919Z,96.35
2018-12-26T01:03:29.867Z,96.26
2018-12-26T01:04:29.817Z,96.26
2018-12-26T01:05:29.791Z,96.16
2018-12-26T01:06:29.683Z,96.16
2018-12-26T01:07:29.637Z,95.88
2018-12-26T01:08:29.567Z,96.26
2018-12-26T01:09:29.505Z,97.01
2018-12-26T01:10:29.481Z,96.54
2018-12-26T01:11:29.385Z,95.78
2018-12-26T01:12:29.325Z,96.73
2018-12-26T01:13:29.274Z,95.69
2018-12-26T01:14:29.212Z,95.97
2018-12-26T01:15:29.184Z,95.64
2018-12-26T01:16:29.086Z,96.11
2018-12-26T01:17:29.028Z,95.64
2018-12-26T01:18:28.969Z,96.21
2018-12-26T01:19:28.914Z,96.64
2018-12-26T01:20:28.880Z,96.45
2018-12-26T01:21:28.790Z,97.15
2018-12-26T01:22:28.742Z,96.96
2018-12-26T01:23:28.679Z,97.15
2018-12-26T01:24:28.610Z,96.21
2018-12-26T01:25:28.588Z,96.02
2018-12-26T01:26:28.492Z,95.92
2018-12-26T01:27:28.438Z,95.36
2018-12-26T01:28:28.372Z,95.36
2018-12-26T01:29:28.349Z,95.64
2018-12-26T01:30:28.264Z,94.89
2018-12-26T01:31:28.195Z,93.75
2018-12-26T01:32:28.136Z,93.09
2018-12-26T01:33:28.179Z,92.33
2018-12-26T01:34:28.019Z,91.67
2018-12-26T01:35:27.956Z,91.39
2018-12-26T01:36:27.946Z,91.01
2018-12-26T01:37:27.836Z,91.01
2018-12-26T01:38:27.778Z,90.06
2018-12-26T01:39:27.716Z,88.74
2018-12-26T01:40:27.659Z,88.08
2018-12-26T01:41:27.633Z,88.36
2018-12-26T01:42:27.563Z,88.55
2018-12-26T01:43:27.484Z,89.31
2018-12-26T01:44:27.422Z,88.17
2018-12-26T01:45:27.360Z,88.36
2018-12-26T01:46:27.345Z,88.55
2018-12-26T01:47:27.250Z,88.65
2018-12-26T01:48:27.183Z,87.89
2018-12-26T01:49:27.125Z,88.27
2018-12-26T01:50:27.080Z,87.89
2018-12-26T01:51:27.055Z,88.08
2018-12-26T01:52:26.944Z,87.79
2018-12-26T01:53:26.926Z,87.79
2018-12-26T01:54:26.823Z,88.17
2018-12-26T01:55:26.765Z,88.27
2018-12-26T01:56:28.008Z,88.36
2018-12-26T01:57:26.644Z,88.46
2018-12-26T01:58:26.617Z,87.98
2018-12-26T01:59:26.523Z,88.65
2018-12-26T02:00:26.464Z,88.27
2018-12-26T02:01:26.408Z,88.36
2018-12-26T02:02:26.390Z,88.46
2018-12-26T02:03:26.284Z,89.31
2018-12-26T02:04:26.228Z,88.55
2018-12-26T02:05:26.172Z,88.08
2018-12-26T02:06:26.111Z,88.65
2018-12-26T02:07:26.076Z,88.55
2018-12-26T02:08:26.002Z,88.08
2018-12-26T02:09:25.925Z,88.17
2018-12-26T02:10:25.896Z,87.79
2018-12-26T02:11:25.806Z,87.42
2018-12-26T02:12:25.747Z,87.61
2018-12-26T02:13:25.694Z,87.79
2018-12-26T02:14:25.659Z,87.23
2018-12-26T02:15:25.570Z,87.32
2018-12-26T02:16:25.508Z,87.13
2018-12-26T02:17:25.446Z,86.85
2018-12-26T02:18:25.388Z,86.29
2018-12-26T02:19:25.366Z,86.00
2018-12-26T02:20:25.269Z,86.66
2018-12-26T02:21:25.206Z,86.29
2018-12-26T02:22:25.146Z,86.29
2018-12-26T02:23:25.089Z,86.85
2018-12-26T02:24:25.065Z,87.13
2018-12-26T02:25:24.971Z,87.23
2018-12-26T02:26:24.939Z,87.04
2018-12-26T02:27:24.845Z,87.23
2018-12-26T02:28:24.785Z,88.55
2018-12-26T02:29:24.762Z,88.36
2018-12-26T02:30:24.671Z,89.40
2018-12-26T02:31:24.639Z,88.08
2018-12-26T02:32:24.546Z,88.17
2018-12-26T02:33:24.494Z,87.70
2018-12-26T02:34:24.437Z,87.28
2018-12-26T02:35:24.374Z,87.13
2018-12-26T02:36:24.346Z,86.99
2018-12-26T02:37:24.251Z,87.32
2018-12-26T02:38:24.185Z,86.71
2018-12-26T02:39:24.160Z,86.24
2018-12-26T02:40:24.069Z,86.43
2018-12-26T02:41:24.006Z,86.29
2018-12-26T02:42:23.995Z,85.96
2018-12-26T02:43:23.890Z,85.11
2018-12-26T02:44:23.831Z,85.58
2018-12-26T02:45:23.769Z,85.01
2018-12-26T02:46:23.708Z,85.49
2018-12-26T02:47:23.682Z,85.20
2018-12-26T02:48:23.589Z,85.68
2018-12-26T02:49:23.532Z,85.20
2018-12-26T02:50:23.475Z,85.49
2018-12-26T02:51:23.437Z,85.49
2018-12-26T02:52:23.343Z,85.86
2018-12-26T02:53:23.285Z,85.96
2018-12-26T02:54:23.266Z,86.24
2018-12-26T02:55:23.177Z,85.86
2018-12-26T02:56:24.038Z,85.96
2018-12-26T02:57:23.043Z,85.96
2018-12-26T02:58:22.986Z,85.39
2018-12-26T02:59:22.952Z,85.30
2018-12-26T03:00:22.870Z,85.58
2018-12-26T03:01:22.806Z,85.77
2018-12-26T03:02:22.775Z,85.01
2018-12-26T03:03:22.683Z,85.11
2018-12-26T03:04:22.628Z,85.01
2018-12-26T03:05:22.595Z,85.30
2018-12-26T03:06:22.544Z,84.73
2018-12-26T03:07:22.443Z,84.82
2018-12-26T03:08:22.381Z,85.01
2018-12-26T03:09:22.332Z,84.64
2018-12-26T03:10:22.263Z,84.54
2018-12-26T03:11:22.237Z,83.59
2018-12-26T03:12:22.145Z,83.40
2018-12-26T03:13:22.085Z,83.22
2018-12-26T03:14:22.025Z,83.78
2018-12-26T03:15:21.989Z,83.97
2018-12-26T03:16:21.902Z,83.97
2018-12-26T03:17:21.839Z,83.88
2018-12-26T03:18:21.780Z,83.97
2018-12-26T03:19:21.721Z,84.26
2018-12-26T03:20:21.700Z,83.97
2018-12-26T03:21:21.598Z,84.26
2018-12-26T03:22:21.541Z,83.97
2018-12-26T03:23:21.481Z,83.78
2018-12-26T03:24:21.416Z,83.50
2018-12-26T03:25:21.396Z,83.31
2018-12-26T03:26:21.294Z,83.69
2018-12-26T03:27:21.240Z,83.31
2018-12-26T03:28:21.175Z,83.78
2018-12-26T03:29:21.117Z,84.26
2018-12-26T03:30:21.097Z,84.35
2018-12-26T03:31:20.998Z,84.35
2018-12-26T03:32:20.935Z,84.73
2018-12-26T03:33:20.874Z,85.30
2018-12-26T03:34:20.861Z,84.82
2018-12-26T03:35:20.751Z,85.39
2018-12-26T03:36:20.694Z,85.01
2018-12-26T03:37:20.638Z,85.39
2018-12-26T03:38:20.573Z,85.01
2018-12-26T03:39:20.552Z,84.35
2018-12-26T03:40:20.452Z,84.16
2018-12-26T03:41:20.397Z,84.35
2018-12-26T03:42:20.336Z,83.59
2018-12-26T03:43:20.268Z,83.78
2018-12-26T03:44:20.253Z,83.69
2018-12-26T03:45:20.195Z,83.78
2018-12-26T03:46:20.090Z,83.40
2018-12-26T03:47:20.036Z,83.22
2018-12-26T03:48:19.969Z,83.40
2018-12-26T03:49:19.914Z,83.03
2018-12-26T03:50:19.888Z,83.31
2018-12-26T03:51:19.786Z,83.12
2018-12-26T03:52:19.730Z,83.03
2018-12-26T03:53:19.670Z,82.75
2018-12-26T03:54:19.607Z,82.75
2018-12-26T03:55:19.577Z,83.22
2018-12-26T03:56:19.529Z,82.65
2018-12-26T03:57:19.431Z,82.93
2018-12-26T03:58:19.404Z,82.56
2018-12-26T03:59:19.305Z,82.37
2018-12-26T04:00:19.246Z,81.99
2018-12-26T04:01:19.226Z,82.28
2018-12-26T04:02:19.123Z,82.18
2018-12-26T04:03:19.062Z,82.46
2018-12-26T04:04:19.011Z,82.09
2018-12-26T04:05:18.942Z,82.28
2018-12-26T04:06:18.916Z,82.18
2018-12-26T04:07:18.861Z,82.75
2018-12-26T04:08:18.761Z,82.84
2018-12-26T04:09:18.702Z,83.40
2018-12-26T04:10:18.649Z,83.22
2018-12-26T04:11:18.580Z,83.31
2018-12-26T04:12:18.550Z,83.88
2018-12-26T04:13:18.460Z,83.40
2018-12-26T04:14:18.402Z,82.75
2018-12-26T04:15:18.338Z,82.46
2018-12-26T04:16:18.278Z,81.90
2018-12-26T04:17:18.248Z,82.37
2018-12-26T04:18:18.198Z,82.09
2018-12-26T04:19:18.093Z,81.71
2018-12-26T04:20:18.034Z,81.80
2018-12-26T04:21:17.975Z,81.99
2018-12-26T04:22:17.913Z,82.09
2018-12-26T04:23:17.885Z,82.28
2018-12-26T04:24:17.805Z,81.99
2018-12-26T04:25:17.735Z,82.56
2018-12-26T04:26:17.680Z,83.03
2018-12-26T04:27:17.642Z,83.78
2018-12-26T04:28:17.562Z,83.93
2018-12-26T04:29:17.527Z,83.93
2018-12-26T04:30:17.432Z,83.65
2018-12-26T04:31:17.377Z,83.55
2018-12-26T04:32:17.308Z,83.17
2018-12-26T04:33:17.247Z,83.27
2018-12-26T04:34:17.218Z,83.36
2018-12-26T04:35:17.126Z,82.70
2018-12-26T04:36:17.120Z,82.80
2018-12-26T04:37:17.007Z,82.14
2018-12-26T04:38:16.949Z,81.85
2018-12-26T04:39:16.920Z,82.23
2018-12-26T04:40:16.862Z,81.67
2018-12-26T04:41:16.765Z,81.85
2018-12-26T04:42:16.709Z,81.38
2018-12-26T04:43:16.645Z,81.85
2018-12-26T04:44:16.580Z,81.85
2018-12-26T04:45:16.560Z,81.38
2018-12-26T04:46:16.461Z,81.48
2018-12-26T04:47:16.400Z,81.57
2018-12-26T04:48:16.340Z,81.57
2018-12-26T04:49:16.278Z,81.29
2018-12-26T04:50:16.257Z,81.20
2018-12-26T04:51:16.292Z,81.38
2018-12-26T04:52:16.097Z,81.76
2018-12-26T04:53:16.040Z,81.95
2018-12-26T04:54:15.978Z,82.23
2018-12-26T04:55:15.931Z,82.04
2018-12-26T04:56:15.892Z,82.14
2018-12-26T04:57:24.494Z,82.32
2018-12-26T04:58:15.733Z,82.04
2018-12-26T04:59:15.675Z,82.23
2018-12-26T05:00:15.614Z,82.04
2018-12-26T05:01:15.583Z,82.70
2018-12-26T05:02:15.492Z,82.70
2018-12-26T05:03:15.429Z,82.61
2018-12-26T05:04:15.367Z,82.70
2018-12-26T05:05:15.308Z,83.65
2018-12-26T05:06:15.279Z,84.03
2018-12-26T05:07:15.192Z,84.78
2018-12-26T05:08:15.131Z,84.97
2018-12-26T05:09:15.068Z,85.35
2018-12-26T05:10:15.005Z,85.16
2018-12-26T05:11:14.991Z,85.06
2018-12-26T05:12:14.886Z,84.88
2018-12-26T05:13:14.825Z,83.93
2018-12-26T05:14:14.764Z,83.65
2018-12-26T05:15:14.701Z,82.99
2018-12-26T05:16:14.682Z,82.70
2018-12-26T05:17:14.581Z,82.42
2018-12-26T05:18:14.522Z,82.32
2018-12-26T05:19:14.462Z,82.23
2018-12-26T05:20:14.401Z,82.04
2018-12-26T05:21:14.371Z,81.29
2018-12-26T05:22:14.277Z,81.10
2018-12-26T05:23:14.248Z,81.57
2018-12-26T05:24:14.200Z,80.63
2018-12-26T05:25:14.097Z,81.01
2018-12-26T05:26:14.033Z,80.72
2018-12-26T05:27:13.980Z,80.25
2018-12-26T05:28:13.944Z,80.44
2018-12-26T05:29:13.851Z,80.15
2018-12-26T05:30:13.800Z,80.63
2018-12-26T05:31:13.728Z,80.63
2018-12-26T05:32:13.670Z,81.57
2018-12-26T05:33:13.640Z,81.29
2018-12-26T05:34:13.546Z,81.20
2018-12-26T05:35:13.492Z,82.32
2018-12-26T05:36:13.426Z,82.70
2018-12-26T05:37:13.368Z,82.80
2018-12-26T05:38:13.346Z,82.51
2018-12-26T05:39:13.273Z,82.14
2018-12-26T05:40:13.181Z,81.76
2018-12-26T05:41:13.128Z,81.20
2018-12-26T05:42:13.062Z,81.38
2018-12-26T05:43:12.998Z,81.10
2018-12-26T05:44:12.972Z,80.34
2018-12-26T05:45:12.881Z,79.87
2018-12-26T05:46:12.819Z,79.97
2018-12-26T05:47:12.757Z,79.68
2018-12-26T05:48:12.700Z,79.97
2018-12-26T05:49:12.682Z,79.78
2018-12-26T05:50:12.580Z,79.87
2018-12-26T05:51:12.516Z,79.40
2018-12-26T05:52:12.449Z,79.78
2018-12-26T05:53:12.402Z,79.49
2018-12-26T05:54:12.367Z,79.30
2018-12-26T05:55:12.268Z,79.49
2018-12-26T05:56:12.226Z,80.06
2018-12-26T05:57:12.180Z,80.25
2018-12-26T05:58:12.196Z,80.53
2018-12-26T05:59:12.029Z,80.06
2018-12-26T06:00:12.002Z,79.97
2018-12-26T06:01:11.906Z,79.87
2018-12-26T06:02:11.858Z,80.53
2018-12-26T06:03:11.784Z,80.44
2018-12-26T06:04:11.759Z,80.82
2018-12-26T06:05:11.665Z,80.72
2018-12-26T06:06:11.622Z,80.82
2018-12-26T06:07:11.537Z,81.20
2018-12-26T06:08:11.483Z,81.29
2018-12-26T06:09:11.416Z,81.10
2018-12-26T06:10:11.354Z,80.44
2018-12-26T06:11:11.504Z,80.25
2018-12-26T06:12:11.582Z,80.34
2018-12-26T06:13:11.175Z,79.78
2018-12-26T06:14:11.114Z,80.06
2018-12-26T06:15:11.049Z,79.97
2018-12-26T06:16:11.089Z,79.30
2018-12-26T06:17:10.928Z,79.40
2018-12-26T06:18:10.863Z,79.49
2018-12-26T06:19:10.803Z,79.49
2018-12-26T06:20:10.779Z,79.87
2018-12-26T06:21:10.679Z,79.21
2018-12-26T06:22:10.660Z,79.11
2018-12-26T06:23:10.562Z,79.02
2018-12-26T06:24:10.497Z,79.49
2018-12-26T06:25:10.444Z,78.92
2018-12-26T06:26:10.383Z,79.11
2018-12-26T06:27:10.350Z,78.74
2018-12-26T06:28:10.250Z,78.45
2018-12-26T06:29:10.192Z,78.36
2018-12-26T06:30:10.130Z,77.80
2018-12-26T06:31:10.068Z,77.61
2018-12-26T06:32:10.048Z,77.13
2018-12-26T06:33:09.946Z,77.32
2018-12-26T06:34:09.886Z,77.23
2018-12-26T06:35:09.826Z,77.13
2018-12-26T06:36:09.761Z,76.57
2018-12-26T06:37:09.737Z,75.90
2018-12-26T06:38:09.646Z,76.19
2018-12-26T06:39:09.607Z,76.85
2018-12-26T06:40:09.519Z,76.76
2018-12-26T06:41:09.459Z,76.47
2018-12-26T06:42:09.397Z,76.66
2018-12-26T06:43:09.372Z,76.19
2018-12-26T06:44:09.272Z,76.28
2018-12-26T06:45:09.214Z,76.09
2018-12-26T06:46:09.154Z,76.19
2018-12-26T06:47:09.091Z,76.00
2018-12-26T06:48:09.068Z,75.90
2018-12-26T06:49:08.968Z,75.81
2018-12-26T06:50:08.907Z,75.81
2018-12-26T06:51:08.845Z,75.15
2018-12-26T06:52:08.782Z,75.53
2018-12-26T06:53:08.762Z,75.43
2018-12-26T06:54:08.665Z,75.34
2018-12-26T06:55:08.604Z,75.71
2018-12-26T06:56:08.550Z,75.62
2018-12-26T06:57:08.478Z,76.09
2018-12-26T06:58:08.453Z,75.81
2018-12-26T06:59:08.387Z,75.62
2018-12-26T07:00:08.290Z,76.00
2018-12-26T07:01:08.271Z,76.19
2018-12-26T07:02:08.175Z,76.38
2018-12-26T07:03:08.106Z,76.47
2018-12-26T07:04:08.043Z,76.47
2018-12-26T07:05:08.020Z,76.19
2018-12-26T07:06:07.922Z,76.57
2018-12-26T07:07:07.896Z,76.53
2018-12-26T07:08:07.801Z,76.66
2018-12-26T07:09:07.740Z,76.47
2018-12-26T07:10:07.679Z,76.53
2018-12-26T07:11:07.651Z,76.95
2018-12-26T07:12:07.561Z,76.95
2018-12-26T07:13:07.527Z,77.42
2018-12-26T07:14:07.439Z,77.32
2018-12-26T07:15:07.373Z,76.95
2018-12-26T07:16:07.310Z,77.42
2018-12-26T07:17:07.252Z,77.51
2018-12-26T07:18:07.221Z,77.51
2018-12-26T07:19:07.126Z,77.51
2018-12-26T07:20:07.124Z,77.42
2018-12-26T07:21:07.005Z,77.61
2018-12-26T07:22:06.942Z,77.70
2018-12-26T07:23:06.912Z,77.04
2018-12-26T07:24:06.822Z,77.23
2018-12-26T07:25:06.757Z,77.32
2018-12-26T07:26:06.697Z,77.13
2018-12-26T07:27:06.637Z,77.42
2018-12-26T07:28:09.216Z,76.85
2018-12-26T07:29:06.519Z,76.95
2018-12-26T07:30:06.452Z,77.23
2018-12-26T07:31:06.385Z,77.23
2018-12-26T07:32:06.325Z,76.85
2018-12-26T07:33:06.306Z,77.32
2018-12-26T07:34:06.204Z,77.04
2018-12-26T07:35:06.146Z,77.42
2018-12-26T07:36:06.089Z,77.70
2018-12-26T07:37:06.019Z,77.89
2018-12-26T07:38:05.992Z,78.17
2018-12-26T07:39:05.904Z,77.80
2018-12-26T07:40:05.878Z,77.98
2018-12-26T07:41:05.777Z,77.70
2018-12-26T07:42:05.712Z,78.55
2018-12-26T07:43:05.649Z,79.02
2018-12-26T07:44:05.594Z,79.40
2018-12-26T07:45:05.565Z,79.30
2018-12-26T07:46:05.470Z,79.49
2018-12-26T07:47:05.417Z,80.06
2018-12-26T07:48:05.381Z,79.97
2018-12-26T07:49:05.286Z,79.87
2018-12-26T07:50:05.230Z,80.82
2018-12-26T07:51:05.161Z,80.63
2018-12-26T07:52:05.102Z,81.38
2018-12-26T07:53:05.069Z,81.57
2018-12-26T07:54:04.984Z,81.48
2018-12-26T07:55:04.914Z,81.48
2018-12-26T07:56:04.859Z,82.14
2018-12-26T07:57:04.832Z,82.70
2018-12-26T07:58:04.737Z,82.99
2018-12-26T07:59:04.674Z,83.36
2018-12-26T08:00:04.615Z,83.36
2018-12-26T08:01:04.551Z,82.89
2018-12-26T08:02:04.524Z,83.46
2018-12-26T08:03:04.426Z,83.08
2018-12-26T08:04:04.369Z,82.99
2018-12-26T08:05:04.313Z,83.40
2018-12-26T08:06:04.251Z,83.59
2018-12-26T08:07:04.222Z,83.31
2018-12-26T08:08:04.124Z,83.31
2018-12-26T08:09:04.065Z,83.59
2018-12-26T08:10:04.005Z,83.69
2018-12-26T08:11:03.972Z,83.59
2018-12-26T08:12:03.915Z,84.54
2018-12-26T08:13:03.818Z,84.82
2018-12-26T08:14:03.766Z,84.92
2018-12-26T08:15:10.527Z,85.20
2018-12-26T08:16:03.642Z,85.96
2018-12-26T08:17:03.621Z,85.86
2018-12-26T08:18:03.518Z,86.43
2018-12-26T08:19:03.453Z,86.71
2018-12-26T08:20:03.401Z,87.85
2018-12-26T08:21:03.331Z,88.13
2018-12-26T08:22:03.304Z,88.98
2018-12-26T08:23:03.245Z,89.73
2018-12-26T08:24:03.172Z,90.77
2018-12-26T08:25:03.093Z,90.87
2018-12-26T08:26:03.031Z,90.59
2018-12-26T08:27:02.966Z,90.96
2018-12-26T08:28:03.088Z,91.15
2018-12-26T08:29:02.851Z,91.82
2018-12-26T08:30:02.805Z,93.56
2018-12-26T08:31:02.729Z,93.75
2018-12-26T08:32:02.668Z,94.32
2018-12-26T08:33:02.642Z,95.36
2018-12-26T08:34:02.568Z,97.15
2018-12-26T08:35:02.486Z,97.15
2018-12-26T08:36:02.425Z,99.04
2018-12-26T08:37:02.403Z,99.89
2018-12-26T08:38:02.347Z,99.99
2018-12-26T08:39:02.251Z,99.71
2018-12-26T08:40:02.184Z,99.99
2018-12-26T08:41:02.141Z,99.99
2018-12-26T08:42:02.067Z,99.23
2018-12-26T08:43:02.046Z,98.47
2018-12-26T08:44:01.943Z,99.80
2018-12-26T08:45:01.900Z,99.80
2018-12-26T08:46:01.824Z,99.99
2018-12-26T08:47:01.794Z,99.99
2018-12-26T08:48:01.748Z,99.99
2018-12-26T08:49:01.703Z,99.99
2018-12-26T08:50:01.589Z,99.99
2018-12-26T08:51:01.546Z,99.99
2018-12-26T08:52:01.466Z,99.99
2018-12-26T08:53:01.411Z,99.99
2018-12-26T08:54:01.393Z,99.99
2018-12-26T08:55:01.310Z,99.99
2018-12-26T08:56:01.277Z,99.99
2018-12-26T08:57:01.193Z,99.99
2018-12-26T08:58:01.112Z,99.99
2018-12-26T08:59:01.070Z,99.99
2018-12-26T09:00:01.044Z,99.99
2018-12-26T09:01:00.954Z,99.99
2018-12-26T09:02:00.868Z,99.99
2018-12-26T09:03:00.879Z,99.99
2018-12-26T09:04:00.748Z,99.99
2018-12-26T09:05:00.718Z,99.99
2018-12-26T09:06:00.631Z,99.99
2018-12-26T09:07:00.595Z,99.99
2018-12-26T09:08:00.586Z,99.99
2018-12-26T09:09:00.460Z,99.99
2018-12-26T09:10:00.447Z,99.99
2018-12-26T09:11:00.334Z,99.99
2018-12-26T09:12:00.267Z,99.99
2018-12-26T09:13:00.245Z,99.99
2018-12-26T09:14:00.163Z,99.04
2018-12-26T09:15:00.164Z,98.28
2018-12-26T09:16:00.046Z,98.19
2018-12-26T09:17:00.022Z,98.10
2018-12-26T09:17:59.933Z,98.38
2018-12-26T09:18:59.850Z,99.23
2018-12-26T09:19:59.800Z,99.80
2018-12-26T09:20:59.746Z,99.99
2018-12-26T09:21:59.703Z,99.89
2018-12-26T09:22:59.608Z,99.99
2018-12-26T09:23:59.552Z,99.99
2018-12-26T09:24:59.506Z,99.23
2018-12-26T09:25:59.482Z,98.57
2018-12-26T09:26:59.369Z,99.61
2018-12-26T09:27:59.315Z,99.61
2018-12-26T09:28:59.251Z,99.99
2018-12-26T09:29:59.223Z,99.33
2018-12-26T09:30:59.131Z,99.14
2018-12-26T09:31:59.070Z,99.99
2018-12-26T09:32:59.031Z,99.99
2018-12-26T09:33:58.998Z,99.99
2018-12-26T09:34:58.908Z,99.99
2018-12-26T09:35:58.844Z,99.99
2018-12-26T09:36:58.837Z,99.99
2018-12-26T09:37:58.716Z,99.80
2018-12-26T09:38:58.671Z,99.89
2018-12-26T09:39:59.132Z,99.99
2018-12-26T09:40:58.548Z,99.99
2018-12-26T09:41:58.512Z,99.99
2018-12-26T09:42:58.420Z,98.85
2018-12-26T09:43:58.358Z,98.19
2018-12-26T09:44:58.292Z,97.72
2018-12-26T09:45:58.244Z,97.34
2018-12-26T09:46:58.253Z,97.25
2018-12-26T09:47:59.065Z,97.15
2018-12-26T09:48:58.050Z,96.11
2018-12-26T09:49:58.013Z,97.06
2018-12-26T09:50:57.964Z,98.28
2018-12-26T09:51:57.898Z,97.91
2018-12-26T09:52:57.809Z,96.87
2018-12-26T09:53:57.775Z,96.07
2018-12-26T09:54:57.694Z,96.64
2018-12-26T09:55:57.671Z,96.73
2018-12-26T09:56:57.605Z,97.20
2018-12-26T09:57:57.536Z,98.71
2018-12-26T09:58:57.459Z,99.19
2018-12-26T09:59:57.453Z,99.38
2018-12-26T10:00:57.327Z,99.99
2018-12-26T10:01:57.325Z,99.99
2018-12-26T10:02:57.209Z,99.99
2018-12-26T10:03:57.168Z,99.99
2018-12-26T10:04:57.093Z,99.99
2018-12-26T10:05:57.087Z,99.99
2018-12-26T10:06:56.974Z,99.99
2018-12-26T10:07:56.932Z,99.99
2018-12-26T10:08:56.851Z,99.99
2018-12-26T10:09:56.790Z,99.99
2018-12-26T10:10:56.758Z,99.99
2018-12-26T10:11:56.672Z,99.99
2018-12-26T10:12:56.617Z,99.99
2018-12-26T10:13:56.657Z,99.99
2018-12-26T10:14:56.489Z,99.99
2018-12-26T10:15:56.430Z,99.99
2018-12-26T10:16:56.373Z,99.99
2018-12-26T10:17:56.308Z,99.99
2018-12-26T10:18:56.281Z,99.99
2018-12-26T10:19:56.190Z,99.99
2018-12-26T10:20:56.174Z,99.99
2018-12-26T10:21:56.073Z,99.99
2018-12-26T10:22:56.014Z,99.99
2018-12-26T10:23:55.951Z,99.99
2018-12-26T10:24:55.928Z,99.99
2018-12-26T10:25:55.838Z,99.99
2018-12-26T10:26:55.770Z,99.99
2018-12-26T10:27:55.716Z,99.99
2018-12-26T10:29:00.889Z,99.99
2018-12-26T10:29:55.631Z,99.99
2018-12-26T10:30:55.665Z,99.99
2018-12-26T10:31:55.473Z,99.99
2018-12-26T10:32:55.425Z,99.99
2018-12-26T10:33:55.358Z,99.99
2018-12-26T10:34:55.299Z,99.99
2018-12-26T10:35:55.273Z,99.99
2018-12-26T10:36:55.176Z,99.99
2018-12-26T10:37:55.123Z,99.99
2018-12-26T10:38:55.089Z,99.99
2018-12-26T10:39:54.999Z,99.99
2018-12-26T10:40:54.942Z,99.99
2018-12-26T10:41:54.884Z,99.99
2018-12-26T10:42:54.818Z,99.99
2018-12-26T10:43:54.792Z,99.99
2018-12-26T10:44:54.697Z,99.99
2018-12-26T10:45:54.647Z,99.99
2018-12-26T10:46:54.579Z,99.99
2018-12-26T10:47:54.583Z,99.99
2018-12-26T10:48:54.460Z,99.99
2018-12-26T10:49:54.409Z,99.99
2018-12-26T10:50:54.374Z,99.99
2018-12-26T10:51:54.283Z,99.99
2018-12-26T10:52:54.226Z,99.99
2018-12-26T10:53:54.165Z,99.99
2018-12-26T10:54:54.141Z,99.99
2018-12-26T10:55:54.047Z,99.99
2018-12-26T10:56:54.047Z,99.99
2018-12-26T10:57:53.959Z,99.99
2018-12-26T10:58:53.869Z,99.99
2018-12-26T10:59:53.842Z,99.99
2018-12-26T11:00:53.958Z,99.99
2018-12-26T11:01:53.693Z,99.99
2018-12-26T11:02:53.641Z,99.99
2018-12-26T11:03:53.576Z,99.99
2018-12-26T11:04:53.553Z,99.99
2018-12-26T11:05:53.458Z,99.99
2018-12-26T11:06:53.402Z,99.99
2018-12-26T11:07:53.345Z,99.99
2018-12-26T11:08:53.281Z,99.99
2018-12-26T11:09:53.258Z,99.99
2018-12-26T11:10:53.179Z,99.99
2018-12-26T11:11:53.104Z,99.99
2018-12-26T11:12:53.048Z,99.99
2018-12-26T11:13:52.987Z,99.99
2018-12-26T11:14:52.959Z,99.99
2018-12-26T11:15:52.871Z,99.99
2018-12-26T11:16:52.817Z,99.99
2018-12-26T11:17:52.754Z,99.99
2018-12-26T11:18:52.699Z,99.99
2018-12-26T11:19:52.666Z,99.99
2018-12-26T11:20:52.580Z,99.99
2018-12-26T11:21:52.519Z,99.99
2018-12-26T11:22:52.462Z,99.99
2018-12-26T11:23:52.434Z,99.99
2018-12-26T11:24:52.374Z,99.99
2018-12-26T11:25:52.286Z,99.99
2018-12-26T11:26:52.228Z,99.99
2018-12-26T11:27:53.012Z,99.99
2018-12-26T11:28:52.144Z,99.99
2018-12-26T11:29:52.046Z,99.99
2018-12-26T11:30:51.990Z,99.99
2018-12-26T11:31:51.927Z,99.99
2018-12-26T11:32:51.881Z,99.99
2018-12-26T11:33:51.854Z,99.99
2018-12-26T11:34:51.756Z,99.99
2018-12-26T11:35:51.692Z,99.99
2018-12-26T11:36:51.632Z,99.99
2018-12-26T11:37:51.579Z,99.99
2018-12-26T11:38:51.552Z,99.99
2018-12-26T11:39:51.459Z,99.99
2018-12-26T11:40:51.401Z,99.99
2018-12-26T11:41:51.339Z,99.99
2018-12-26T11:42:51.316Z,99.99
2018-12-26T11:43:51.222Z,99.99
2018-12-26T11:44:51.168Z,99.99
2018-12-26T11:45:51.137Z,99.99
2018-12-26T11:46:51.048Z,99.99
2018-12-26T11:47:51.019Z,99.99
2018-12-26T11:48:50.933Z,99.99
2018-12-26T11:49:50.876Z,99.99
2018-12-26T11:50:50.810Z,99.99
2018-12-26T11:51:50.771Z,99.99
2018-12-26T11:52:50.727Z,99.99
2018-12-26T11:53:50.638Z,99.99
2018-12-26T11:54:50.609Z,99.99
2018-12-26T11:55:50.522Z,99.99
2018-12-26T11:56:50.468Z,99.99
2018-12-26T11:57:50.403Z,99.99
2018-12-26T11:58:50.371Z,99.99
2018-12-26T11:59:50.284Z,99.99
2018-12-26T12:00:50.227Z,99.99
2018-12-26T12:01:50.168Z,99.99
2018-12-26T12:02:50.110Z,99.99
2018-12-26T12:03:50.083Z,99.99
2018-12-26T12:04:50.025Z,99.99
2018-12-26T12:05:49.935Z,99.99
2018-12-26T12:06:49.870Z,99.99
2018-12-26T12:07:49.816Z,99.99
2018-12-26T12:08:49.756Z,99.99
2018-12-26T12:09:49.726Z,99.99
2018-12-26T12:10:50.254Z,99.99
2018-12-26T12:11:49.580Z,99.99
2018-12-26T12:12:49.524Z,99.99
2018-12-26T12:13:49.462Z,99.99
2018-12-26T12:14:49.436Z,99.99
2018-12-26T12:15:49.347Z,99.99
2018-12-26T12:16:49.328Z,99.99
2018-12-26T12:17:49.233Z,99.99
2018-12-26T12:18:49.167Z,99.99
2018-12-26T12:19:49.112Z,99.99
2018-12-26T12:20:49.095Z,99.99
2018-12-26T12:21:48.993Z,99.99
2018-12-26T12:22:48.932Z,99.99
2018-12-26T12:23:48.875Z,99.99
2018-12-26T12:24:48.813Z,99.99
2018-12-26T12:25:48.789Z,99.99
2018-12-26T12:26:48.698Z,99.99
2018-12-26T12:27:48.665Z,99.99
2018-12-26T12:28:48.618Z,99.99
2018-12-26T12:29:48.522Z,99.99
2018-12-26T12:30:48.464Z,99.99
2018-12-26T12:31:48.438Z,99.99
2018-12-26T12:32:48.347Z,99.99
2018-12-26T12:33:48.292Z,99.99
2018-12-26T12:34:48.228Z,99.99
2018-12-26T12:35:48.170Z,99.99
2018-12-26T12:36:48.167Z,99.99
2018-12-26T12:37:48.056Z,99.99
2018-12-26T12:38:47.993Z,99.99
2018-12-26T12:39:47.939Z,99.99
2018-12-26T12:40:47.879Z,99.99
2018-12-26T12:41:47.851Z,99.99
2018-12-26T12:42:47.803Z,99.99
2018-12-26T12:43:47.702Z,99.99
2018-12-26T12:44:47.646Z,99.99
2018-12-26T12:45:47.585Z,99.99
2018-12-26T12:46:47.529Z,99.99
2018-12-26T12:47:47.507Z,99.99
2018-12-26T12:48:47.409Z,99.99
2018-12-26T12:49:47.348Z,99.99
2018-12-26T12:50:47.289Z,99.99
2018-12-26T12:51:47.235Z,99.99